Bookmark and Share
Track history (hours):
 

Koyo

Last reported at 2014-Apr-23 06:33 UTC. Time now 2014-Apr-23 06:46 UTC.
Position N 34°36' E 135°12'.

Length 80 m; draft 3.6 m.

Type: Cargo ship. MMSI: 431301812.

NotesDate/timePositionNaut miles runAvg speedWind from/ knotsBaromVisibWave heightAir tempDewpointWater temp
2014-Apr-23 06:33N 34°36' E 135°12'1110.5
2014-Apr-23 05:33N 34°38' E 135°25'0 0.0
2014-Apr-23 04:33N 34°38' E 135°25'0 0.0
2014-Apr-23 03:27N 34°38' E 135°25'0 0.0
2014-Apr-23 02:33N 34°38' E 135°25'5 4.7
2014-Apr-23 01:33N 34°37' E 135°19'5 4.2
2014-Apr-23 00:24N 34°40' E 135°14'0 0.0
2014-Apr-22 23:12N 34°40' E 135°14'1 1.1
2014-Apr-22 22:25N 34°39' E 135°15'0 0.0
2014-Apr-22 21:31N 34°39' E 135°15'0 0.0
2014-Apr-22 20:31N 34°39' E 135°15'7 7.2
2014-Apr-22 19:33N 34°36' E 135°07'9 8.8
2014-Apr-22 18:32N 34°36' E 134°56'10 9.3
2014-Apr-22 17:31N 34°32' E 134°46'2 0.1
2014-Apr-21 07:22N 34°34' E 134°47'1012.9
2014-Apr-21 06:33N 34°37' E 134°59'1313.0
2014-Apr-21 05:33N 34°36' E 135°15'8 7.9
2014-Apr-21 04:29N 34°38' E 135°25'0 0.0
2014-Apr-21 03:29N 34°38' E 135°25'7 7.8
2014-Apr-21 02:33N 34°38' E 135°16'2 1.6
2014-Apr-21 01:25N 34°39' E 135°14'0 0.0
2014-Apr-21 00:31N 34°39' E 135°14'1 1.1
2014-Apr-20 23:34N 34°41' E 135°14'1 0.9
2014-Apr-20 22:23N 34°40' E 135°13'0 0.0
2014-Apr-20 21:29N 34°40' E 135°13'0 0.0
2014-Apr-20 20:29N 34°40' E 135°13'0 0.0
2014-Apr-20 19:29N 34°40' E 135°13'0 0.0
2014-Apr-20 18:23N 34°40' E 135°13'0 0.0
2014-Apr-20 17:29N 34°40' E 135°13'0 0.0
2014-Apr-20 16:11N 34°40' E 135°13'0 0.0
2014-Apr-20 15:29N 34°40' E 135°13'0 0.0
2014-Apr-20 14:29N 34°40' E 135°13'0 0.0
2014-Apr-20 13:29N 34°40' E 135°13'0 0.0
2014-Apr-20 12:29N 34°40' E 135°13'0 0.0
2014-Apr-20 11:17N 34°40' E 135°13'0 0.0
2014-Apr-20 10:29N 34°40' E 135°13'0 0.0
2014-Apr-20 09:29N 34°40' E 135°13'0 0.0
2014-Apr-20 08:29N 34°40' E 135°13'0 0.0
2014-Apr-20 07:23N 34°40' E 135°13'0 0.0
2014-Apr-20 06:29N 34°40' E 135°13'0 0.0
2014-Apr-20 05:29N 34°40' E 135°13'0 0.0
2014-Apr-20 04:29N 34°40' E 135°13'0 0.0
2014-Apr-20 03:17N 34°40' E 135°13'0 0.0
2014-Apr-20 02:29N 34°40' E 135°13'0 0.0
2014-Apr-20 01:29N 34°40' E 135°13'0 0.0
2014-Apr-20 00:29N 34°40' E 135°13'0 0.0
2014-Apr-19 23:23N 34°40' E 135°13'0 0.0
2014-Apr-19 22:23N 34°40' E 135°13'0 0.0
2014-Apr-19 21:29N 34°40' E 135°13'0 0.0
2014-Apr-19 20:29N 34°40' E 135°13'0 0.0
2014-Apr-19 19:29N 34°40' E 135°13'0 0.0
2014-Apr-19 18:29N 34°40' E 135°13'0 0.0
2014-Apr-19 17:29N 34°40' E 135°13'0 0.0
2014-Apr-19 16:23N 34°40' E 135°13'0 0.0
2014-Apr-19 15:29N 34°40' E 135°13'0 0.0
2014-Apr-19 14:29N 34°40' E 135°13'0 0.0
2014-Apr-19 13:29N 34°40' E 135°13'0 0.0
2014-Apr-19 12:23N 34°40' E 135°13'0 0.0
2014-Apr-19 11:29N 34°40' E 135°13'0 0.0
2014-Apr-19 10:33N 34°40' E 135°13'8 7.9
2014-Apr-19 09:33N 34°33' E 135°13'1212.0
2014-Apr-19 08:33N 34°23' E 135°05'1511.4
2014-Apr-19 07:16N 34°12' E 134°54'24 1.0
2014-Apr-18 07:31N 34°35' E 134°51'9 9.5
2014-Apr-18 06:33N 34°37' E 135°02'1111.0
2014-Apr-18 05:33N 34°39' E 135°15'0 0.4
2014-Apr-18 04:16N 34°39' E 135°15'0 0.0
2014-Apr-18 03:28N 34°39' E 135°15'0 0.0
2014-Apr-18 02:22N 34°39' E 135°15'0 0.4
2014-Apr-18 01:33N 34°39' E 135°15'1 0.6
2014-Apr-18 00:33N 34°39' E 135°15'0 0.0
2014-Apr-17 23:27N 34°39' E 135°15'0 0.0
2014-Apr-17 22:33N 34°39' E 135°15'0 0.0
2014-Apr-17 21:27N 34°39' E 135°15'0 0.0
2014-Apr-17 20:33N 34°39' E 135°15'0 0.0
2014-Apr-17 19:27N 34°39' E 135°15'4 4.6
2014-Apr-17 18:34N 34°36' E 135°11'1211.9
2014-Apr-17 17:32N 34°36' E 134°56'1211.1
2014-Apr-17 16:25N 34°31' E 134°42'2 0.1
2014-Apr-16 08:25N 34°32' E 134°43'910.5
2014-Apr-16 07:33N 34°35' E 134°53'8 7.8
2014-Apr-16 06:33N 34°36' E 135°03'10 9.6
2014-Apr-16 05:33N 34°38' E 135°14'2 1.9
2014-Apr-16 04:33N 34°40' E 135°14'1 0.9
2014-Apr-16 03:34N 34°40' E 135°15'2 1.9
2014-Apr-16 02:32N 34°41' E 135°13'0 0.0
2014-Apr-16 01:26N 34°41' E 135°13'0 0.0
2014-Apr-16 00:32N 34°41' E 135°13'0 0.0
2014-Apr-15 23:26N 34°41' E 135°13'0 0.0
2014-Apr-15 22:32N 34°41' E 135°13'0 0.0
2014-Apr-15 21:32N 34°41' E 135°13'4 4.2
2014-Apr-15 20:33N 34°37' E 135°14'1111.0
2014-Apr-15 19:32N 34°37' E 135°00'1212.4
2014-Apr-15 18:32N 34°32' E 134°47'4 0.1
2014-Apr-14 06:31N 34°35' E 134°51'10 9.9
2014-Apr-14 05:32N 34°36' E 135°03'9 1.3
2014-Apr-13 22:18N 34°40' E 135°13'0 0.0
2014-Apr-13 21:30N 34°40' E 135°13'0 0.0
2014-Apr-13 20:30N 34°40' E 135°13'0 0.0
2014-Apr-13 19:30N 34°40' E 135°13'0 0.0
2014-Apr-13 18:24N 34°40' E 135°13'0 0.0
2014-Apr-13 17:30N 34°40' E 135°13'0 0.0
2014-Apr-13 16:30N 34°40' E 135°13'0 0.0
2014-Apr-13 15:30N 34°40' E 135°13'0 0.0
2014-Apr-13 14:18N 34°40' E 135°13'0 0.0
2014-Apr-13 13:30N 34°40' E 135°13'0 0.0
2014-Apr-13 12:30N 34°40' E 135°13'0 0.0
2014-Apr-13 11:30N 34°40' E 135°13'0 0.0
2014-Apr-13 10:30N 34°40' E 135°13'0 0.0
2014-Apr-13 09:18N 34°40' E 135°13'0 0.0
2014-Apr-13 08:30N 34°40' E 135°13'3 2.9
2014-Apr-13 07:34N 34°39' E 135°16'1313.5
2014-Apr-13 06:34N 34°27' E 135°08'  

Dump ship's entire track history

sailing weather and tide predictions

Koyo — JD2279 — position and weather